createdAt,value
2023-03-20T00:01:33.508Z,73.90
2023-03-20T00:06:38.370Z,73.80
2023-03-20T00:11:49.254Z,73.70
2023-03-20T00:16:53.782Z,73.80
2023-03-20T00:21:59.201Z,73.80
2023-03-20T00:27:03.277Z,73.80
2023-03-20T00:32:11.968Z,73.80
2023-03-20T00:37:16.765Z,73.70
2023-03-20T00:42:24.729Z,73.70
2023-03-20T00:47:28.752Z,73.70
2023-03-20T00:52:33.536Z,73.90
2023-03-20T00:57:44.663Z,74.00
2023-03-20T01:02:48.810Z,73.90
2023-03-20T01:07:54.013Z,73.70
2023-03-20T01:13:01.802Z,73.70
2023-03-20T01:18:05.585Z,73.70
2023-03-20T01:23:11.486Z,73.70
2023-03-20T01:28:20.095Z,73.80
2023-03-20T01:33:26.505Z,73.70
2023-03-20T01:38:33.252Z,73.60
2023-03-20T01:43:37.466Z,73.70
2023-03-20T01:49:06.727Z,73.70
2023-03-20T01:54:17.149Z,73.80
2023-03-20T01:59:32.857Z,73.80
2023-03-20T02:04:42.937Z,73.60
2023-03-20T02:09:51.284Z,73.70
2023-03-20T02:15:02.654Z,73.70
2023-03-20T02:20:46.815Z,73.80
2023-03-20T02:26:46.213Z,73.70
2023-03-20T02:33:03.478Z,73.70
2023-03-20T02:38:30.166Z,73.70
2023-03-20T02:43:48.108Z,73.80
2023-03-20T02:48:58.351Z,73.80
2023-03-20T02:54:11.881Z,73.60
2023-03-20T02:59:30.042Z,73.60
2023-03-20T03:04:38.321Z,73.70
2023-03-20T03:09:50.368Z,73.70
2023-03-20T03:14:57.954Z,73.80
2023-03-20T03:20:07.927Z,73.60
2023-03-20T03:25:14.735Z,73.70
2023-03-20T03:30:27.174Z,73.70
2023-03-20T03:35:32.414Z,73.80
2023-03-20T03:40:45.516Z,73.80
2023-03-20T03:45:56.206Z,73.70
2023-03-20T03:51:06.022Z,73.70
2023-03-20T03:56:15.766Z,73.60
2023-03-20T04:01:20.188Z,73.70
2023-03-20T04:06:24.131Z,73.80
2023-03-20T04:11:29.484Z,73.60
2023-03-20T04:16:33.053Z,73.60
2023-03-20T04:21:36.737Z,73.70
2023-03-20T04:26:41.959Z,73.70
2023-03-20T04:31:45.631Z,73.80
2023-03-20T04:36:53.952Z,73.60
2023-03-20T04:42:02.990Z,73.70
2023-03-20T04:47:06.604Z,73.70
2023-03-20T04:52:13.413Z,73.80
2023-03-20T04:57:20.632Z,73.80
2023-03-20T05:02:24.773Z,73.70
2023-03-20T05:07:29.614Z,73.60
2023-03-20T05:12:40.841Z,73.70
2023-03-20T05:18:05.851Z,73.70
2023-03-20T05:23:20.296Z,73.90
2023-03-20T05:28:30.315Z,73.90
2023-03-20T05:33:51.123Z,73.70
2023-03-20T05:39:15.037Z,73.70
2023-03-20T05:44:31.698Z,73.70
2023-03-20T05:50:03.675Z,73.80
2023-03-20T05:55:27.058Z,73.80
2023-03-20T06:00:50.496Z,73.70
2023-03-20T06:06:12.467Z,73.70
2023-03-20T06:11:17.359Z,73.80
2023-03-20T06:16:23.170Z,73.80
2023-03-20T06:21:28.149Z,73.90
2023-03-20T06:26:32.161Z,73.70
2023-03-20T06:31:43.496Z,73.80
2023-03-20T06:36:53.270Z,73.80
2023-03-20T06:41:59.943Z,73.80
2023-03-20T06:47:04.778Z,73.80
2023-03-20T06:52:09.043Z,73.70
2023-03-20T06:57:17.646Z,73.70
2023-03-20T07:02:22.816Z,73.70
2023-03-20T07:07:26.445Z,73.80
2023-03-20T07:12:30.062Z,73.60
2023-03-20T07:17:38.201Z,73.70
2023-03-20T07:22:42.590Z,73.70
2023-03-20T07:28:00.534Z,73.80
2023-03-20T07:33:07.096Z,73.80
2023-03-20T07:38:11.693Z,73.60
2023-03-20T07:43:25.940Z,73.60
2023-03-20T07:49:02.516Z,73.60
2023-03-20T07:54:06.442Z,73.60
2023-03-20T07:59:10.811Z,73.70
2023-03-20T08:04:19.412Z,73.50
2023-03-20T08:09:23.100Z,73.50
2023-03-20T08:14:26.590Z,73.50
2023-03-20T08:19:31.430Z,73.50
2023-03-20T08:24:34.817Z,73.60
2023-03-20T08:29:38.611Z,73.70
2023-03-20T08:34:43.743Z,73.50
2023-03-20T08:39:47.347Z,73.50
2023-03-20T08:44:50.846Z,73.50
2023-03-20T08:49:55.879Z,73.60
2023-03-20T08:54:59.261Z,73.60
2023-03-20T09:00:02.755Z,73.60
2023-03-20T09:05:09.338Z,73.50
2023-03-20T09:10:14.179Z,73.50
2023-03-20T09:15:17.793Z,73.60
2023-03-20T09:20:22.701Z,73.60
2023-03-20T09:25:26.478Z,73.60
2023-03-20T09:30:29.948Z,73.70
2023-03-20T09:35:34.818Z,73.50
2023-03-20T09:40:57.157Z,73.50
2023-03-20T09:46:19.011Z,73.50
2023-03-20T09:51:36.891Z,73.60
2023-03-20T09:56:40.722Z,73.60
2023-03-20T10:01:51.007Z,73.50
2023-03-20T10:06:56.608Z,73.50
2023-03-20T10:12:37.233Z,73.50
2023-03-20T10:17:53.000Z,73.40
2023-03-20T10:23:04.595Z,73.40
2023-03-20T10:28:15.524Z,73.20
2023-03-20T10:33:38.583Z,73.20
2023-03-20T10:38:51.060Z,73.40
2023-03-20T10:43:56.229Z,73.40
2023-03-20T10:49:06.346Z,73.40
2023-03-20T10:54:24.368Z,73.30
2023-03-20T10:59:32.925Z,73.20
2023-03-20T11:04:36.366Z,73.20
2023-03-20T11:09:41.612Z,73.20
2023-03-20T11:14:45.062Z,73.20
2023-03-20T11:19:48.447Z,73.10
2023-03-20T11:24:58.902Z,73.00
2023-03-20T11:30:07.382Z,73.10
2023-03-20T11:35:23.728Z,73.10
2023-03-20T11:40:35.112Z,73.10
2023-03-20T11:45:42.827Z,73.00
2023-03-20T11:50:52.569Z,73.00
2023-03-20T11:56:12.248Z,73.00
2023-03-20T12:01:15.851Z,73.10
2023-03-20T12:06:24.562Z,73.10
2023-03-20T12:11:48.439Z,73.10
2023-03-20T12:16:58.520Z,73.20
2023-03-20T12:22:17.906Z,72.90
2023-03-20T12:27:31.919Z,72.90
2023-03-20T12:32:43.218Z,73.00
2023-03-20T12:37:46.717Z,73.00
2023-03-20T12:43:04.878Z,72.80
2023-03-20T12:48:38.855Z,72.80
2023-03-20T12:54:02.024Z,72.90
2023-03-20T12:59:16.585Z,72.90
2023-03-20T13:04:52.472Z,72.80
2023-03-20T13:10:13.683Z,72.70
2023-03-20T13:15:33.110Z,72.80
2023-03-20T13:20:43.826Z,72.80
2023-03-20T13:26:17.189Z,72.80
2023-03-20T13:31:40.771Z,72.80
2023-03-20T13:37:16.064Z,72.60
2023-03-20T13:42:24.838Z,72.60
2023-03-20T13:47:30.638Z,72.70
2023-03-20T13:52:42.052Z,72.70
2023-03-20T13:58:12.405Z,72.70
2023-03-20T14:03:26.299Z,72.60
2023-03-20T14:08:37.480Z,72.60
2023-03-20T14:13:42.948Z,72.80
2023-03-20T14:18:51.656Z,72.80
2023-03-20T14:24:04.116Z,72.80
2023-03-20T14:29:36.296Z,72.80
2023-03-20T14:34:50.426Z,72.60
2023-03-20T14:40:02.311Z,72.70
2023-03-20T14:45:43.346Z,72.80
2023-03-20T14:51:15.774Z,72.80
2023-03-20T14:56:29.127Z,72.70
2023-03-20T15:01:54.914Z,72.80
2023-03-20T15:07:04.969Z,72.80
2023-03-20T15:12:09.191Z,72.80
2023-03-20T15:17:26.482Z,72.80
2023-03-20T15:22:31.356Z,72.70
2023-03-20T15:27:35.081Z,72.70
2023-03-20T15:32:38.631Z,72.80
2023-03-20T15:37:44.928Z,72.80
2023-03-20T15:42:55.593Z,72.80
2023-03-20T15:48:05.900Z,72.80
2023-03-20T15:53:17.909Z,72.80
2023-03-20T15:58:21.816Z,72.80
2023-03-20T16:03:26.082Z,72.90
2023-03-20T16:08:34.956Z,72.80
2023-03-20T16:13:42.942Z,72.70
2023-03-20T16:18:48.048Z,72.80
2023-03-20T16:23:57.411Z,72.80
2023-03-20T16:29:03.085Z,73.00
2023-03-20T16:34:18.034Z,72.90
2023-03-20T16:39:27.080Z,72.90
2023-03-20T16:44:36.405Z,72.80
2023-03-20T16:50:23.142Z,72.90
2023-03-20T16:55:31.907Z,72.90
2023-03-20T17:00:46.222Z,72.90
2023-03-20T17:05:57.021Z,73.00
2023-03-20T17:11:11.905Z,73.00
2023-03-20T17:16:20.971Z,72.90
2023-03-20T17:21:24.594Z,72.90
2023-03-20T17:26:29.468Z,72.90
2023-03-20T17:31:33.097Z,73.00
2023-03-20T17:36:38.424Z,73.10
2023-03-20T17:41:43.183Z,72.90
2023-03-20T17:46:57.644Z,72.90
2023-03-20T17:52:02.011Z,72.90
2023-03-20T17:57:13.639Z,73.00
2023-03-20T18:02:18.288Z,73.10
2023-03-20T18:07:22.071Z,73.10
2023-03-20T18:12:26.897Z,73.10
2023-03-20T18:17:30.322Z,72.90
2023-03-20T18:22:33.702Z,73.10
2023-03-20T18:27:38.525Z,73.00
2023-03-20T18:32:41.971Z,73.20
2023-03-20T18:37:46.147Z,73.00
2023-03-20T18:42:50.921Z,73.10
2023-03-20T18:47:55.518Z,73.10
2023-03-20T18:53:00.688Z,73.20
2023-03-20T18:58:06.585Z,73.20
2023-03-20T19:03:12.408Z,73.10
2023-03-20T19:08:16.992Z,73.20
2023-03-20T19:13:23.006Z,73.20
2023-03-20T19:18:28.093Z,73.20
2023-03-20T19:23:31.678Z,73.20
2023-03-20T19:28:41.305Z,73.20
2023-03-20T19:33:45.703Z,73.20
2023-03-20T19:38:49.107Z,73.20
2023-03-20T19:43:55.590Z,73.30
2023-03-20T19:48:59.199Z,73.10
2023-03-20T19:54:02.734Z,73.20
2023-03-20T19:59:08.353Z,73.30
2023-03-20T20:04:12.025Z,73.30
2023-03-20T20:09:15.977Z,73.30
2023-03-20T20:14:23.465Z,73.30
2023-03-20T20:19:29.788Z,73.20
2023-03-20T20:24:34.012Z,73.30
2023-03-20T20:29:38.826Z,73.30
2023-03-20T20:40:09.053Z,73.30
2023-03-20T20:45:15.296Z,73.30
2023-03-20T20:50:21.918Z,73.30
2023-03-20T20:55:25.677Z,73.50
2023-03-20T21:00:48.533Z,73.40
2023-03-20T21:05:54.088Z,73.40
2023-03-20T21:10:57.682Z,73.30
2023-03-20T21:16:02.478Z,73.40
2023-03-20T21:21:07.497Z,73.40
2023-03-20T21:26:11.292Z,73.40
2023-03-20T21:31:29.346Z,73.30
2023-03-20T21:36:35.243Z,73.40
2023-03-20T21:41:40.811Z,73.40
2023-03-20T21:47:22.753Z,73.50
2023-03-20T21:58:17.469Z,73.50
2023-03-20T22:03:10.230Z,73.30
2023-03-20T22:09:16.917Z,73.40
2023-03-20T22:25:12.185Z,73.40
2023-03-20T22:36:02.941Z,73.50
2023-03-20T22:41:41.663Z,73.80
2023-03-20T22:46:22.674Z,73.70
2023-03-20T22:51:35.168Z,73.50
2023-03-20T22:56:40.395Z,73.40
2023-03-20T23:01:43.789Z,73.50
2023-03-20T23:06:48.739Z,73.50
2023-03-20T23:11:52.187Z,73.70
2023-03-20T23:16:55.822Z,73.60
2023-03-20T23:22:00.754Z,73.60
2023-03-20T23:27:04.344Z,73.50
2023-03-20T23:32:07.958Z,73.60
2023-03-20T23:37:12.823Z,73.60
2023-03-20T23:42:29.804Z,73.60
2023-03-20T23:47:44.825Z,73.50
2023-03-20T23:58:14.662Z,73.70
